Time;durP1;ratioP1;P1;durP2;ratioP2;P2;SDS_P1;SDS_P2;PMS_P1;PMS_P2;Temp;Humidity;BMP_temperature;BMP_pressure;BME280_temperature;BME280_humidity;BME280_pressure;Samples;Min_cycle;Max_cycle;Signal;HPM_P1;HPM_P2
2023/01/26 00:01:18;;;;;;;13.53;7.93;;;0.80;99.90;;;;;;5062499;28;20947;-84
2023/01/26 00:03:49;;;;;;;12.40;8.87;;;0.70;99.90;;;;;;5062868;28;20498;-83
2023/01/26 00:06:19;;;;;;;17.47;8.90;;;0.70;99.90;;;;;;5062163;28;20492;-83
2023/01/26 00:08:50;;;;;;;12.43;8.23;;;0.60;99.90;;;;;;5063382;28;21009;-83
2023/01/26 00:11:25;;;;;;;15.73;9.33;;;0.60;99.90;;;;;;5060238;28;20461;-83
2023/01/26 00:13:52;;;;;;;18.93;10.10;;;0.60;99.90;;;;;;5060905;28;20443;-84
2023/01/26 00:16:22;;;;;;;15.40;9.70;;;0.50;99.90;;;;;;5060859;28;20548;-84
2023/01/26 00:18:53;;;;;;;12.83;9.33;;;0.50;99.90;;;;;;5068993;28;20841;-84
2023/01/26 00:21:24;;;;;;;13.80;8.37;;;0.50;99.90;;;;;;5065717;28;20505;-84
2023/01/26 00:23:54;;;;;;;11.37;7.63;;;0.50;99.90;;;;;;5064699;28;20529;-84
2023/01/26 00:26:33;;;;;;;9.87;7.43;;;0.40;99.90;;;;;;5066719;28;21399;-84
2023/01/26 00:29:03;;;;;;;15.53;7.57;;;0.60;99.90;;;;;;5066168;28;20777;-83
2023/01/26 00:31:30;;;;;;;11.70;7.57;;;0.50;99.90;;;;;;5062599;28;20464;-84
2023/01/26 00:33:57;;;;;;;12.00;7.17;;;0.50;99.90;;;;;;5059618;28;20796;-83
2023/01/26 00:36:26;;;;;;;11.73;7.33;;;0.50;99.90;;;;;;5065185;28;20973;-84
2023/01/26 00:38:53;;;;;;;11.13;8.00;;;0.40;99.90;;;;;;5067113;28;20517;-83
2023/01/26 00:44:06;;;;;;;12.10;7.90;;;0.70;99.90;;;;;;5032831;28;20448;-84
2023/01/26 00:46:33;;;;;;;13.17;7.50;;;0.60;99.90;;;;;;5064564;28;20556;-84
2023/01/26 00:49:00;;;;;;;13.30;7.83;;;0.70;99.90;;;;;;5066219;28;20448;-84
2023/01/26 00:51:28;;;;;;;17.47;9.53;;;0.60;99.90;;;;;;5064851;28;20802;-84
2023/01/26 00:53:55;;;;;;;14.60;8.50;;;0.60;99.90;;;;;;5058409;28;20489;-84
2023/01/26 00:56:22;;;;;;;17.17;9.60;;;0.70;99.90;;;;;;5063712;28;20491;-84
2023/01/26 00:58:49;;;;;;;11.63;6.83;;;0.70;99.90;;;;;;5061391;28;20480;-84
2023/01/26 01:01:16;;;;;;;11.50;7.27;;;0.60;99.90;;;;;;5061542;28;20944;-84
2023/01/26 01:03:43;;;;;;;14.07;7.37;;;0.50;99.90;;;;;;5050019;28;20489;-84
2023/01/26 01:06:13;;;;;;;11.70;7.70;;;0.40;99.90;;;;;;5054159;28;20747;-84
2023/01/26 01:08:41;;;;;;;11.20;7.03;;;0.50;99.90;;;;;;5062347;28;20541;-84
2023/01/26 01:11:10;;;;;;;10.80;6.60;;;0.60;99.90;;;;;;5062198;28;20464;-84
2023/01/26 01:13:37;;;;;;;12.17;6.83;;;0.60;99.90;;;;;;5065312;28;20492;-84
2023/01/26 01:16:09;;;;;;;12.43;6.93;;;0.60;99.90;;;;;;5066174;28;20452;-84
2023/01/26 01:18:36;;;;;;;11.90;6.30;;;0.70;99.90;;;;;;5058069;28;20512;-84
2023/01/26 01:21:06;;;;;;;10.20;6.20;;;0.70;99.90;;;;;;5059824;28;20496;-84
2023/01/26 01:23:33;;;;;;;15.40;7.70;;;0.60;99.90;;;;;;5049026;28;20473;-84
2023/01/26 01:26:02;;;;;;;11.87;6.40;;;0.70;99.90;;;;;;5064823;28;20475;-84
2023/01/26 01:28:29;;;;;;;12.37;6.70;;;0.70;99.90;;;;;;5060042;28;20962;-84
2023/01/26 01:30:56;;;;;;;14.17;7.40;;;0.80;99.90;;;;;;5051972;28;20940;-84
2023/01/26 01:33:23;;;;;;;11.03;7.20;;;0.70;99.90;;;;;;5060772;28;20477;-83
2023/01/26 01:35:57;;;;;;;13.67;7.87;;;0.80;99.90;;;;;;5060415;28;20496;-83
2023/01/26 01:38:26;;;;;;;18.10;5.97;;;0.80;99.90;;;;;;5064545;28;20499;-84
2023/01/26 01:40:55;;;;;;;12.23;7.30;;;0.70;99.90;;;;;;5058726;28;20878;-84
2023/01/26 01:43:24;;;;;;;10.77;7.40;;;0.70;99.90;;;;;;5062605;28;20463;-83
2023/01/26 01:45:52;;;;;;;13.13;7.47;;;0.70;99.90;;;;;;5063592;28;20462;-84
2023/01/26 01:48:25;;;;;;;14.30;8.10;;;0.60;99.90;;;;;;5053679;28;20574;-83
2023/01/26 01:50:54;;;;;;;9.20;6.70;;;0.50;99.90;;;;;;5051677;28;20542;-84
2023/01/26 01:53:28;;;;;;;11.70;6.80;;;0.60;99.90;;;;;;5064117;28;20553;-84
2023/01/26 01:55:58;;;;;;;11.70;7.20;;;0.60;99.90;;;;;;5062161;28;20472;-83
2023/01/26 01:58:29;;;;;;;10.50;7.40;;;0.60;99.90;;;;;;5064828;28;20577;-84
2023/01/26 02:01:02;;;;;;;15.97;6.90;;;0.60;99.90;;;;;;5056203;28;20460;-84
2023/01/26 02:03:30;;;;;;;15.87;9.10;;;0.60;99.90;;;;;;5054332;28;20552;-83
2023/01/26 02:06:01;;;;;;;11.03;7.87;;;0.50;99.90;;;;;;5063620;28;20483;-83
2023/01/26 02:08:36;;;;;;;14.30;7.10;;;0.40;99.90;;;;;;5057907;28;20845;-83
2023/01/26 02:11:09;;;;;;;10.07;6.37;;;0.40;99.90;;;;;;5063499;28;20447;-83
2023/01/26 02:13:41;;;;;;;17.87;8.40;;;0.30;99.90;;;;;;5060059;28;20451;-84
2023/01/26 02:16:10;;;;;;;18.23;8.83;;;0.30;99.90;;;;;;5057800;28;20485;-83
2023/01/26 02:18:40;;;;;;;18.73;8.53;;;0.40;99.90;;;;;;5056609;28;21162;-83
2023/01/26 02:21:09;;;;;;;16.13;9.70;;;0.40;99.90;;;;;;5054460;28;20900;-84
2023/01/26 02:23:49;;;;;;;12.80;7.93;;;0.40;99.90;;;;;;5061324;28;20499;-83
2023/01/26 02:26:19;;;;;;;15.63;8.30;;;0.40;99.90;;;;;;5057780;28;21032;-83
2023/01/26 02:28:47;;;;;;;13.87;8.90;;;0.40;99.90;;;;;;5063464;28;20909;-83
2023/01/26 02:31:17;;;;;;;15.70;9.43;;;0.40;99.90;;;;;;5060698;28;20468;-83
2023/01/26 02:33:44;;;;;;;21.20;10.00;;;0.40;99.90;;;;;;5050760;28;20937;-83
2023/01/26 02:36:19;;;;;;;16.03;7.47;;;0.30;99.90;;;;;;5053497;28;20492;-83
2023/01/26 02:38:58;;;;;;;17.80;10.03;;;0.30;99.90;;;;;;5057856;28;20511;-83
2023/01/26 02:44:15;;;;;;;17.33;8.17;;;0.20;99.90;;;;;;5056838;28;20609;-83
2023/01/26 02:46:42;;;;;;;17.63;9.70;;;0.10;99.90;;;;;;5052227;28;20460;-83
2023/01/26 02:51:56;;;;;;;11.20;7.67;;;0.20;99.90;;;;;;5056547;28;20447;-83
2023/01/26 02:57:09;;;;;;;16.80;10.27;;;0.10;99.90;;;;;;5054816;28;20490;-83
2023/01/26 02:59:38;;;;;;;17.13;9.47;;;0.20;99.90;;;;;;5061644;28;20490;-83
2023/01/26 03:02:05;;;;;;;13.93;7.43;;;0.20;99.90;;;;;;5064507;28;20455;-83
2023/01/26 03:04:32;;;;;;;17.70;9.70;;;0.20;99.90;;;;;;5056748;28;20476;-83
2023/01/26 03:06:59;;;;;;;16.77;9.00;;;0.20;99.90;;;;;;5063766;28;20479;-83
2023/01/26 03:09:29;;;;;;;19.17;9.10;;;0.30;99.90;;;;;;5062862;28;20479;-83
2023/01/26 03:11:56;;;;;;;14.97;7.33;;;0.20;99.90;;;;;;5060814;28;20488;-83
2023/01/26 03:14:24;;;;;;;21.65;7.47;;;0.10;99.90;;;;;;5052832;28;20944;-83
2023/01/26 03:16:51;;;;;;;13.77;8.82;;;0.10;99.90;;;;;;5062506;28;20298;-83
2023/01/26 03:27:38;;;;;;;14.18;8.00;;;0.00;99.90;;;;;;5060013;28;20229;-83
2023/01/26 03:30:07;;;;;;;15.15;8.32;;;0.00;99.90;;;;;;5062129;28;20228;-83
2023/01/26 03:32:37;;;;;;;14.60;7.47;;;-0.10;99.90;;;;;;5061569;28;20280;-83
2023/01/26 03:35:04;;;;;;;15.20;7.53;;;-0.20;99.90;;;;;;5069935;28;20865;-83
2023/01/26 03:37:35;;;;;;;15.33;8.40;;;-0.20;99.90;;;;;;5082275;28;20575;-83
2023/01/26 03:56:32;;;;;;;15.63;8.37;;;0.10;99.90;;;;;;5077992;28;20696;-83
2023/01/26 03:59:06;;;;;;;16.40;9.17;;;0.10;99.90;;;;;;5073706;28;20518;-83
2023/01/26 04:01:36;;;;;;;10.60;6.27;;;0.10;99.90;;;;;;5062452;28;20520;-83
2023/01/26 04:09:36;;;;;;;15.17;7.37;;;0.00;99.90;;;;;;5064239;28;20430;-83
2023/01/26 04:12:04;;;;;;;16.05;7.22;;;0.10;99.90;;;;;;5068896;28;20454;-84
2023/01/26 04:22:45;;;;;;;12.07;7.33;;;0.10;99.90;;;;;;5061394;28;20454;-83
2023/01/26 04:25:13;;;;;;;11.83;6.60;;;0.20;99.90;;;;;;5076703;28;21041;-84
2023/01/26 04:27:41;;;;;;;11.70;6.67;;;0.20;99.90;;;;;;5045924;28;20972;-83
2023/01/26 04:30:09;;;;;;;11.47;6.60;;;0.20;99.90;;;;;;5062031;28;20455;-83
2023/01/26 04:32:38;;;;;;;11.90;6.40;;;0.20;99.90;;;;;;5062587;28;20460;-83
2023/01/26 04:35:06;;;;;;;15.77;8.07;;;0.10;99.90;;;;;;5067802;28;20518;-83
2023/01/26 04:37:36;;;;;;;11.13;7.47;;;0.10;99.90;;;;;;5059901;28;20517;-84
2023/01/26 04:40:04;;;;;;;13.37;7.87;;;0.20;99.90;;;;;;5065346;28;20466;-83
2023/01/26 04:42:31;;;;;;;29.00;13.60;;;0.20;99.90;;;;;;5066148;28;20462;-83
2023/01/26 04:44:58;;;;;;;29.57;16.33;;;0.30;99.90;;;;;;5082926;28;20448;-83
2023/01/26 04:47:25;;;;;;;19.30;9.77;;;0.30;99.90;;;;;;5060010;28;20467;-83
2023/01/26 04:49:53;;;;;;;175.40;93.47;;;0.30;99.90;;;;;;5062397;28;20484;-83
2023/01/26 04:52:31;;;;;;;122.70;62.40;;;0.30;99.90;;;;;;5064522;28;20495;-83
2023/01/26 04:54:58;;;;;;;117.10;63.73;;;0.20;99.90;;;;;;5060538;28;20462;-83
2023/01/26 04:57:25;;;;;;;118.40;60.00;;;0.20;99.90;;;;;;5061095;28;20508;-83
2023/01/26 04:59:52;;;;;;;115.33;65.03;;;0.20;99.90;;;;;;5061540;28;20975;-83
2023/01/26 05:02:19;;;;;;;44.83;29.73;;;0.20;99.90;;;;;;5062966;28;20552;-83
2023/01/26 05:04:46;;;;;;;21.93;14.47;;;0.20;99.90;;;;;;5063385;28;20549;-83
2023/01/26 05:07:14;;;;;;;19.97;11.30;;;0.20;99.90;;;;;;5076117;28;20487;-83
2023/01/26 05:09:41;;;;;;;17.60;8.93;;;0.10;99.90;;;;;;5076142;28;20480;-83
2023/01/26 05:14:52;;;;;;;14.00;6.80;;;0.10;99.90;;;;;;5063667;28;20448;-83
2023/01/26 05:17:19;;;;;;;19.90;8.10;;;0.20;99.90;;;;;;5064987;28;20472;-83
2023/01/26 05:19:46;;;;;;;14.13;6.47;;;0.20;99.90;;;;;;5064027;28;20526;-84
2023/01/26 05:22:14;;;;;;;10.50;6.20;;;0.30;99.90;;;;;;5061036;28;20501;-84
2023/01/26 05:24:42;;;;;;;13.13;5.20;;;0.10;99.90;;;;;;5075125;28;20486;-84
2023/01/26 05:27:23;;;;;;;16.43;6.80;;;0.20;99.90;;;;;;5060051;28;20489;-83
2023/01/26 05:29:51;;;;;;;13.57;6.07;;;0.20;99.90;;;;;;5061321;28;20867;-83
2023/01/26 05:32:18;;;;;;;15.43;7.50;;;0.30;99.90;;;;;;5054133;28;20498;-83
2023/01/26 05:34:45;;;;;;;9.83;6.03;;;0.30;99.90;;;;;;5064050;28;20513;-83
2023/01/26 05:37:13;;;;;;;9.23;5.73;;;0.40;99.90;;;;;;5065104;28;20476;-83
2023/01/26 05:39:48;;;;;;;14.00;6.87;;;0.40;99.90;;;;;;5059843;28;20512;-83
2023/01/26 05:42:22;;;;;;;15.60;7.10;;;0.40;99.90;;;;;;5062399;28;20460;-84
2023/01/26 05:44:49;;;;;;;10.27;6.70;;;0.40;99.90;;;;;;5056866;28;20693;-83
2023/01/26 05:47:16;;;;;;;16.60;8.07;;;0.50;99.90;;;;;;5060278;28;20481;-83
2023/01/26 05:49:44;;;;;;;21.97;9.90;;;0.50;99.90;;;;;;5049285;28;20924;-83
2023/01/26 05:52:16;;;;;;;13.37;7.60;;;0.50;99.90;;;;;;5063508;28;20467;-83
2023/01/26 05:54:44;;;;;;;18.07;8.60;;;0.40;99.90;;;;;;5060570;28;20480;-83
2023/01/26 05:57:12;;;;;;;15.13;7.53;;;0.30;99.90;;;;;;5062493;28;20488;-83
2023/01/26 05:59:42;;;;;;;16.13;8.30;;;0.20;99.90;;;;;;5057741;28;20584;-83
2023/01/26 06:02:11;;;;;;;12.97;5.70;;;0.10;99.90;;;;;;5058849;28;20468;-83
2023/01/26 06:04:38;;;;;;;14.80;7.07;;;0.10;99.90;;;;;;5058777;28;20454;-83
2023/01/26 06:07:05;;;;;;;13.03;7.23;;;0.10;99.90;;;;;;5058886;28;20522;-83
2023/01/26 06:09:32;;;;;;;12.70;6.87;;;0.10;99.90;;;;;;5059222;28;20480;-83
2023/01/26 06:12:01;;;;;;;12.67;6.50;;;0.10;99.90;;;;;;5052378;28;20485;-83
2023/01/26 06:14:28;;;;;;;13.17;6.93;;;0.00;99.90;;;;;;5056284;28;20461;-83
2023/01/26 06:16:56;;;;;;;12.50;7.30;;;0.00;99.90;;;;;;5051929;28;20522;-84
2023/01/26 06:19:23;;;;;;;15.60;7.67;;;0.10;99.90;;;;;;5055362;28;20576;-84
2023/01/26 06:21:50;;;;;;;14.25;8.07;;;0.10;99.90;;;;;;5050539;28;20496;-84
2023/01/26 06:24:16;;;;;;;13.37;6.07;;;0.10;99.90;;;;;;5057041;28;20257;-83
2023/01/26 06:26:43;;;;;;;11.67;6.20;;;0.10;99.90;;;;;;5067492;28;20492;-83
2023/01/26 06:29:12;;;;;;;16.17;7.57;;;0.20;99.90;;;;;;5064696;28;20525;-83
2023/01/26 06:31:40;;;;;;;13.27;6.43;;;0.20;99.90;;;;;;5057919;28;20522;-83
2023/01/26 06:34:09;;;;;;;13.37;6.90;;;0.30;99.90;;;;;;5061603;28;20476;-84
2023/01/26 06:36:36;;;;;;;10.80;5.23;;;0.30;99.90;;;;;;5057857;28;20942;-84
2023/01/26 06:39:04;;;;;;;15.70;6.50;;;0.30;99.90;;;;;;5050067;28;20878;-83
2023/01/26 06:41:31;;;;;;;13.83;7.00;;;0.50;99.90;;;;;;5061111;28;21013;-83
2023/01/26 06:43:58;;;;;;;12.77;7.30;;;0.30;99.90;;;;;;5055850;28;20549;-84
2023/01/26 06:46:27;;;;;;;11.50;8.20;;;0.20;99.90;;;;;;5056722;28;20549;-84
2023/01/26 06:48:53;;;;;;;13.97;7.57;;;0.20;99.90;;;;;;5054859;28;20452;-84
2023/01/26 06:51:48;;;;;;;10.77;6.03;;;0.30;99.90;;;;;;5063025;28;20476;-83
2023/01/26 06:54:15;;;;;;;11.47;6.60;;;0.20;99.90;;;;;;5056910;28;20482;-84
2023/01/26 06:56:46;;;;;;;8.87;5.20;;;0.00;99.90;;;;;;5059264;28;20456;-83
2023/01/26 06:59:13;;;;;;;15.90;7.20;;;0.00;99.90;;;;;;5062669;28;20542;-83
2023/01/26 07:01:47;;;;;;;10.93;5.20;;;-0.10;99.90;;;;;;5060581;28;20467;-82
2023/01/26 07:04:15;;;;;;;80.40;45.00;;;0.00;99.90;;;;;;5057282;28;20466;-83
2023/01/26 07:06:44;;;;;;;64.87;44.60;;;0.10;99.90;;;;;;5056618;28;20459;-82
2023/01/26 07:09:12;;;;;;;27.07;15.73;;;0.20;99.90;;;;;;5061258;28;20487;-82
2023/01/26 07:11:43;;;;;;;13.73;7.53;;;0.20;99.90;;;;;;5062397;28;20476;-82
2023/01/26 07:14:10;;;;;;;10.17;6.23;;;0.20;99.90;;;;;;5061192;28;20475;-82
2023/01/26 07:16:40;;;;;;;13.57;7.17;;;0.10;99.90;;;;;;5062865;28;20569;-83
2023/01/26 07:19:17;;;;;;;11.97;8.00;;;0.20;99.90;;;;;;5062353;28;20483;-82
2023/01/26 07:21:43;;;;;;;12.40;5.93;;;0.30;99.90;;;;;;5058281;28;20995;-82
2023/01/26 07:24:11;;;;;;;12.67;5.77;;;0.30;99.90;;;;;;5065030;28;20538;-83
2023/01/26 07:26:38;;;;;;;10.90;6.07;;;0.20;99.90;;;;;;5059578;28;21158;-83
2023/01/26 07:29:04;;;;;;;15.90;6.13;;;0.20;99.90;;;;;;5061809;28;20502;-83
2023/01/26 07:31:33;;;;;;;9.60;5.00;;;0.10;99.90;;;;;;5060891;28;20467;-82
2023/01/26 07:34:00;;;;;;;8.10;4.60;;;0.10;99.90;;;;;;5065050;28;20462;-83
2023/01/26 07:36:31;;;;;;;6.07;4.00;;;0.10;99.90;;;;;;5070136;28;20522;-83
2023/01/26 07:39:06;;;;;;;11.87;5.50;;;0.20;99.90;;;;;;5063579;28;20524;-83
2023/01/26 07:41:33;;;;;;;28.17;17.03;;;0.20;99.90;;;;;;5059805;28;20470;-84
2023/01/26 07:44:07;;;;;;;13.32;7.65;;;0.20;99.90;;;;;;5052033;28;20557;-83
2023/01/26 07:46:36;;;;;;;14.90;9.00;;;0.10;99.90;;;;;;5055123;28;20208;-83
2023/01/26 07:49:03;;;;;;;11.13;8.20;;;0.20;99.90;;;;;;5057986;28;20463;-83
2023/01/26 07:51:31;;;;;;;8.50;4.73;;;0.10;99.90;;;;;;5054506;28;20883;-83
2023/01/26 07:54:01;;;;;;;12.07;7.13;;;0.20;99.90;;;;;;5058912;28;20492;-83
2023/01/26 07:56:28;;;;;;;9.80;5.20;;;0.20;99.90;;;;;;5056145;28;20461;-83
2023/01/26 07:58:58;;;;;;;10.20;5.37;;;0.20;99.90;;;;;;5061897;28;20984;-83
2023/01/26 08:01:24;;;;;;;9.60;5.53;;;0.30;99.90;;;;;;5051139;28;20603;-83
2023/01/26 08:03:52;;;;;;;8.20;5.30;;;0.30;99.90;;;;;;5059134;28;20509;-84
2023/01/26 08:06:20;;;;;;;6.60;5.40;;;0.30;99.90;;;;;;5052636;28;20459;-84
2023/01/26 08:08:53;;;;;;;15.53;11.27;;;0.30;99.90;;;;;;5051724;28;20561;-83
2023/01/26 08:11:22;;;;;;;49.27;29.13;;;0.20;99.90;;;;;;5062650;28;21254;-83
2023/01/26 08:13:49;;;;;;;14.00;9.57;;;0.30;99.90;;;;;;5051939;28;20467;-83
2023/01/26 08:16:16;;;;;;;15.20;6.93;;;0.30;99.90;;;;;;5059641;28;20471;-83
2023/01/26 08:18:46;;;;;;;11.10;8.23;;;0.50;99.90;;;;;;5056741;28;20865;-84
2023/01/26 08:21:16;;;;;;;12.23;7.30;;;0.50;99.90;;;;;;5056376;28;20478;-83
2023/01/26 08:23:43;;;;;;;5.83;3.53;;;0.30;99.90;;;;;;5071187;28;20571;-83
2023/01/26 08:26:13;;;;;;;6.93;4.68;;;0.20;99.90;;;;;;5060345;28;20500;-83
2023/01/26 08:28:41;;;;;;;14.65;6.00;;;0.20;99.90;;;;;;5046863;28;20206;-83
2023/01/26 08:31:10;;;;;;;6.60;3.53;;;0.30;99.90;;;;;;5054827;28;20683;-83
2023/01/26 08:33:38;;;;;;;11.90;5.87;;;0.20;99.90;;;;;;5055144;28;20229;-83
2023/01/26 08:36:07;;;;;;;8.80;5.70;;;0.10;99.90;;;;;;5053018;28;20939;-83
2023/01/26 08:38:37;;;;;;;8.83;5.00;;;0.20;99.90;;;;;;5061612;28;20555;-83
2023/01/26 08:41:04;;;;;;;7.73;4.60;;;0.30;99.90;;;;;;5058688;28;20498;-83
2023/01/26 08:43:33;;;;;;;7.57;5.23;;;0.40;99.90;;;;;;5064217;28;20464;-83
2023/01/26 08:46:00;;;;;;;5.63;3.60;;;0.30;99.90;;;;;;5060115;28;20548;-83
2023/01/26 08:48:29;;;;;;;10.53;5.33;;;0.30;99.90;;;;;;5054694;28;21124;-83
2023/01/26 08:50:58;;;;;;;13.13;6.87;;;0.20;99.90;;;;;;5056355;28;20488;-83
2023/01/26 08:53:25;;;;;;;13.43;5.23;;;0.20;99.90;;;;;;5058718;28;20495;-83
2023/01/26 08:55:54;;;;;;;12.40;5.80;;;0.20;99.90;;;;;;5056501;28;20504;-83
2023/01/26 08:58:22;;;;;;;8.00;4.83;;;0.20;99.90;;;;;;5054712;28;20480;-83
2023/01/26 09:00:50;;;;;;;6.77;3.87;;;0.20;99.90;;;;;;5058127;28;21050;-83
2023/01/26 09:03:18;;;;;;;8.00;4.50;;;0.30;99.90;;;;;;5058130;28;20496;-83
2023/01/26 09:05:45;;;;;;;12.07;6.60;;;0.30;99.90;;;;;;5061634;28;20514;-83
2023/01/26 09:08:12;;;;;;;11.93;6.10;;;0.30;99.90;;;;;;5063351;28;20493;-83
2023/01/26 09:10:43;;;;;;;9.83;5.30;;;0.20;99.90;;;;;;5062097;28;20499;-83
2023/01/26 09:13:15;;;;;;;11.17;5.07;;;0.10;99.90;;;;;;5059732;28;20472;-83
2023/01/26 09:15:41;;;;;;;8.67;5.00;;;0.10;99.90;;;;;;5064406;28;20478;-83
2023/01/26 09:18:16;;;;;;;10.13;4.30;;;0.20;99.90;;;;;;5058258;28;20445;-83
2023/01/26 09:20:47;;;;;;;11.23;5.30;;;0.20;99.90;;;;;;5061304;28;21002;-84
2023/01/26 09:23:15;;;;;;;7.43;4.60;;;0.40;99.90;;;;;;5060185;28;20495;-83
2023/01/26 09:25:45;;;;;;;8.40;4.70;;;0.40;99.90;;;;;;5059982;28;21036;-83
2023/01/26 09:28:12;;;;;;;13.20;8.30;;;0.40;99.90;;;;;;5058246;28;20488;-83
2023/01/26 09:30:41;;;;;;;18.63;10.70;;;0.40;99.90;;;;;;5063374;28;20476;-83
2023/01/26 09:33:08;;;;;;;14.90;7.47;;;0.60;99.90;;;;;;5057291;28;20468;-83
2023/01/26 09:35:36;;;;;;;17.57;8.90;;;0.50;99.90;;;;;;5064195;28;20472;-83
2023/01/26 09:38:05;;;;;;;10.17;5.47;;;0.60;99.90;;;;;;5055679;28;20496;-83
2023/01/26 09:40:42;;;;;;;6.00;3.53;;;0.50;99.90;;;;;;5065190;28;20507;-83
2023/01/26 09:43:24;;;;;;;14.20;5.70;;;0.50;99.90;;;;;;5055668;28;20465;-83
2023/01/26 09:46:00;;;;;;;8.83;5.33;;;0.60;99.90;;;;;;5055440;28;20450;-83
2023/01/26 09:48:38;;;;;;;7.90;4.57;;;0.60;99.90;;;;;;5051720;28;20932;-84
2023/01/26 09:51:11;;;;;;;12.10;6.07;;;0.50;99.90;;;;;;5046599;28;20866;-84
2023/01/26 09:53:45;;;;;;;9.63;4.40;;;0.60;99.90;;;;;;5060553;28;20535;-84
2023/01/26 09:56:17;;;;;;;10.37;6.53;;;0.50;99.90;;;;;;5061633;28;20510;-84
2023/01/26 09:58:50;;;;;;;10.70;4.70;;;0.80;99.90;;;;;;5062614;28;20452;-83
2023/01/26 10:01:22;;;;;;;7.30;3.63;;;0.90;99.90;;;;;;5057661;28;20483;-83
2023/01/26 10:03:58;;;;;;;22.23;11.97;;;0.90;99.90;;;;;;5054169;28;20808;-83
2023/01/26 10:06:30;;;;;;;8.30;5.13;;;0.90;99.90;;;;;;5055184;28;20649;-84
2023/01/26 10:09:00;;;;;;;6.50;4.30;;;0.80;99.90;;;;;;5055361;28;20471;-83
2023/01/26 10:11:32;;;;;;;7.17;3.57;;;0.70;99.90;;;;;;5059399;28;20483;-83
2023/01/26 10:14:03;;;;;;;8.17;3.90;;;0.70;99.90;;;;;;5058073;28;20460;-83
2023/01/26 10:16:32;;;;;;;5.20;3.20;;;0.60;99.90;;;;;;5061763;28;20940;-83
2023/01/26 10:19:04;;;;;;;9.73;4.33;;;0.60;99.90;;;;;;5059374;28;20513;-84
2023/01/26 10:21:45;;;;;;;5.77;4.23;;;0.70;99.90;;;;;;5061415;28;21031;-84
2023/01/26 10:24:17;;;;;;;11.97;6.57;;;0.50;99.90;;;;;;5056642;28;20476;-84
2023/01/26 10:26:44;;;;;;;5.77;3.50;;;0.50;99.90;;;;;;5060624;28;20594;-84
2023/01/26 10:29:15;;;;;;;8.13;4.80;;;0.60;99.90;;;;;;5051007;28;21033;-84
2023/01/26 10:31:44;;;;;;;12.73;6.57;;;0.60;99.90;;;;;;5058771;28;20448;-84
2023/01/26 10:34:14;;;;;;;6.50;3.80;;;0.50;99.90;;;;;;5056926;28;20472;-84
2023/01/26 10:36:49;;;;;;;21.40;10.10;;;0.50;99.90;;;;;;5057666;28;20463;-84
2023/01/26 10:39:17;;;;;;;16.27;9.07;;;0.40;99.90;;;;;;5061011;28;20464;-84
2023/01/26 10:41:57;;;;;;;20.70;11.25;;;0.40;99.90;;;;;;5064380;28;21052;-84
2023/01/26 10:44:31;;;;;;;9.90;6.13;;;0.40;99.90;;;;;;5060490;28;20344;-84
2023/01/26 10:47:14;;;;;;;8.03;4.97;;;0.30;99.90;;;;;;5060747;28;20460;-84
2023/01/26 10:49:44;;;;;;;6.43;3.70;;;0.30;99.90;;;;;;5060245;28;20549;-84
2023/01/26 10:52:18;;;;;;;7.93;4.22;;;0.30;99.90;;;;;;5049077;28;20467;-94
2023/01/26 10:54:45;;;;;;;4.00;3.03;;;0.40;99.90;;;;;;5062457;28;20197;-82
2023/01/26 10:57:20;;;;;;;7.53;4.15;;;0.30;99.90;;;;;;5059428;28;20545;-81
2023/01/26 10:59:55;;;;;;;6.43;3.90;;;0.30;99.90;;;;;;5063278;28;20283;-81
2023/01/26 11:02:26;;;;;;;7.43;3.70;;;0.30;99.90;;;;;;5062237;28;20261;-82
2023/01/26 11:05:13;;;;;;;6.87;3.80;;;0.40;99.90;;;;;;5062203;28;20703;-82
2023/01/26 11:07:43;;;;;;;9.10;4.80;;;0.40;99.90;;;;;;5056597;28;20497;-82
2023/01/26 11:10:24;;;;;;;9.10;4.80;;;0.40;99.90;;;;;;5058331;28;20226;-81
2023/01/26 11:12:58;;;;;;;10.20;5.10;;;0.30;99.90;;;;;;5059144;28;20460;-82
2023/01/26 11:15:32;;;;;;;11.40;5.27;;;0.40;99.90;;;;;;5056711;28;20997;-81
2023/01/26 11:18:01;;;;;;;13.83;6.57;;;0.50;99.90;;;;;;5058456;28;20448;-81
2023/01/26 11:20:48;;;;;;;9.70;5.20;;;0.60;99.90;;;;;;5058293;28;20484;-82
2023/01/26 11:23:24;;;;;;;9.83;6.50;;;0.50;99.90;;;;;;5063261;28;20525;-82
2023/01/26 11:26:12;;;;;;;10.30;6.43;;;0.50;99.90;;;;;;5058372;28;20545;-82
2023/01/26 11:28:52;;;;;;;6.70;5.10;;;0.50;99.90;;;;;;5056000;28;20472;-82
2023/01/26 11:31:31;;;;;;;10.53;6.60;;;0.50;99.90;;;;;;5059107;28;20568;-82
2023/01/26 11:34:06;;;;;;;11.03;5.53;;;0.60;99.90;;;;;;5056573;28;20552;-82
2023/01/26 11:36:47;;;;;;;7.50;4.93;;;0.70;99.90;;;;;;5056644;28;20520;-82
2023/01/26 11:39:28;;;;;;;10.30;5.43;;;0.70;99.90;;;;;;5051781;28;20494;-82
2023/01/26 11:42:21;;;;;;;12.67;6.40;;;0.70;99.90;;;;;;5054822;28;20515;-82
2023/01/26 11:45:04;;;;;;;7.80;4.80;;;0.70;99.90;;;;;;5070947;28;20448;-82
2023/01/26 11:47:57;;;;;;;7.33;4.27;;;0.70;99.90;;;;;;5062668;28;20464;-82
2023/01/26 11:50:32;;;;;;;14.60;7.03;;;0.70;99.90;;;;;;5049912;28;20534;-83
2023/01/26 11:53:21;;;;;;;11.63;5.90;;;0.80;99.90;;;;;;5059855;28;20467;-83
2023/01/26 11:56:05;;;;;;;11.03;4.87;;;0.80;99.90;;;;;;5053582;28;20527;-83
2023/01/26 11:58:42;;;;;;;13.70;6.67;;;0.80;99.90;;;;;;5061300;28;20537;-83
2023/01/26 12:01:17;;;;;;;13.13;7.23;;;0.90;99.90;;;;;;5054493;28;20516;-83
2023/01/26 12:03:48;;;;;;;9.40;6.77;;;0.80;99.90;;;;;;5052365;28;20875;-83
2023/01/26 12:06:18;;;;;;;7.23;4.40;;;0.80;99.90;;;;;;5055110;28;20510;-83
2023/01/26 12:08:51;;;;;;;16.40;7.83;;;0.90;99.90;;;;;;5058062;28;20468;-82
2023/01/26 12:11:26;;;;;;;12.47;8.60;;;0.90;99.90;;;;;;5063678;28;20501;-84
2023/01/26 12:14:03;;;;;;;9.33;4.73;;;0.90;99.90;;;;;;5056566;28;20911;-83
2023/01/26 12:16:38;;;;;;;5.53;4.47;;;1.00;99.90;;;;;;5059423;28;20484;-83
2023/01/26 12:19:12;;;;;;;6.60;3.50;;;1.00;99.90;;;;;;5058065;28;20460;-84
2023/01/26 12:21:43;;;;;;;8.23;5.07;;;1.10;99.90;;;;;;5059275;28;20593;-83
2023/01/26 12:24:16;;;;;;;12.30;6.93;;;1.20;99.90;;;;;;5073000;28;20459;-83
2023/01/26 12:26:49;;;;;;;45.63;27.80;;;1.20;99.90;;;;;;5064578;28;20571;-83
2023/01/26 12:29:25;;;;;;;12.20;9.13;;;1.40;99.90;;;;;;5066536;28;20939;-84
2023/01/26 12:31:58;;;;;;;16.67;10.10;;;1.30;99.90;;;;;;5067328;28;20447;-84
2023/01/26 12:34:31;;;;;;;11.87;8.57;;;1.20;99.90;;;;;;5083439;28;20564;-83
2023/01/26 12:37:14;;;;;;;7.97;4.43;;;1.30;99.90;;;;;;5062339;28;20463;-83
2023/01/26 12:39:47;;;;;;;8.43;5.63;;;1.10;99.90;;;;;;5060965;28;20475;-83
2023/01/26 12:42:27;;;;;;;10.10;5.63;;;1.10;99.90;;;;;;5059033;28;21094;-83
2023/01/26 12:45:03;;;;;;;8.80;5.70;;;1.10;99.90;;;;;;5071622;28;20512;-83
2023/01/26 12:47:34;;;;;;;12.23;6.70;;;1.10;99.90;;;;;;5066352;28;20529;-83
2023/01/26 12:50:07;;;;;;;13.43;5.50;;;1.20;99.90;;;;;;5057295;28;20468;-83
2023/01/26 12:52:40;;;;;;;8.40;5.70;;;1.10;99.90;;;;;;5057584;28;20459;-83
2023/01/26 12:55:16;;;;;;;8.70;6.70;;;0.90;99.90;;;;;;5060391;28;20487;-83
2023/01/26 12:57:48;;;;;;;11.70;5.63;;;1.10;99.90;;;;;;5059468;28;20464;-83
2023/01/26 13:00:21;;;;;;;8.40;5.43;;;1.10;99.90;;;;;;5059350;28;20495;-83
2023/01/26 13:02:55;;;;;;;8.20;5.53;;;1.10;99.90;;;;;;5066163;28;20516;-83
2023/01/26 13:05:27;;;;;;;8.03;5.10;;;1.20;99.90;;;;;;5062794;28;20561;-83
2023/01/26 13:07:58;;;;;;;8.83;5.60;;;1.10;99.90;;;;;;5064844;28;20460;-83
2023/01/26 13:10:28;;;;;;;6.80;4.70;;;1.20;99.90;;;;;;5054740;28;20904;-83
2023/01/26 13:12:59;;;;;;;8.07;5.27;;;1.10;99.90;;;;;;5061749;28;20483;-83
2023/01/26 13:15:31;;;;;;;8.40;4.90;;;1.10;99.90;;;;;;5059887;28;20467;-83
2023/01/26 13:18:00;;;;;;;8.90;4.80;;;1.10;99.90;;;;;;5057867;28;20501;-83
2023/01/26 13:20:43;;;;;;;6.47;4.97;;;0.80;99.90;;;;;;5047314;28;20468;-83
2023/01/26 13:23:49;;;;;;;9.43;4.63;;;0.80;99.90;;;;;;5048304;28;20469;-84
2023/01/26 13:26:19;;;;;;;8.73;4.50;;;0.80;99.90;;;;;;5049190;28;20577;-83
2023/01/26 13:28:49;;;;;;;8.27;4.33;;;0.80;99.90;;;;;;5061583;28;20575;-82
2023/01/26 13:31:35;;;;;;;10.07;5.37;;;0.80;99.90;;;;;;5058400;28;20456;-82
2023/01/26 13:34:07;;;;;;;5.90;4.63;;;0.50;99.90;;;;;;5055713;28;20473;-83
2023/01/26 13:36:37;;;;;;;9.33;5.47;;;0.40;99.90;;;;;;5059214;28;20460;-83
2023/01/26 13:39:12;;;;;;;5.37;3.60;;;0.40;99.90;;;;;;5057316;28;21117;-82
2023/01/26 13:41:46;;;;;;;6.00;4.33;;;0.30;99.90;;;;;;5056093;28;20492;-83
2023/01/26 13:44:22;;;;;;;6.50;3.97;;;0.20;99.90;;;;;;5048039;28;20491;-83
2023/01/26 13:46:55;;;;;;;6.10;3.10;;;0.30;99.90;;;;;;5063806;28;20464;-83
2023/01/26 13:49:27;;;;;;;8.30;4.63;;;0.30;99.90;;;;;;5061201;28;20486;-83
2023/01/26 13:51:56;;;;;;;9.13;6.00;;;0.40;99.90;;;;;;5061941;28;20529;-83
2023/01/26 13:54:25;;;;;;;8.43;4.60;;;0.30;99.90;;;;;;5055588;28;20468;-83
2023/01/26 13:57:03;;;;;;;5.57;4.43;;;0.30;99.90;;;;;;5055542;28;20952;-83
2023/01/26 13:59:32;;;;;;;9.33;6.40;;;0.40;99.90;;;;;;5061581;28;20945;-83